Time;durP1;ratioP1;P1;durP2;ratioP2;P2;SDS_P1;SDS_P2;PMS_P1;PMS_P2;Temp;Humidity;BMP_temperature;BMP_pressure;BME280_temperature;BME280_humidity;BME280_pressure;Samples;Min_cycle;Max_cycle;Signal;HPM_P1;HPM_P2
2023/03/28 00:00:12;;;;;;;3.13;2.77;;;;;;;;;;6183547;23;20458;-77
2023/03/28 00:02:58;;;;;;;5.47;2.60;;;;;;;;;;6183770;23;20466;-77
2023/03/28 00:05:39;;;;;;;3.93;3.50;;;;;;;;;;6184747;23;20481;-76
2023/03/28 00:08:39;;;;;;;;;;;;;;;;;;;;;
2023/03/28 00:11:32;;;;;;;3.00;2.67;;;;;;;;;;6186927;23;20393;-78
2023/03/28 00:14:08;;;;;;;4.63;2.60;;;;;;;;;;6174228;23;20471;-78
2023/03/28 00:19:48;;;;;;;5.80;2.63;;;;;;;;;;6170353;23;20399;-77
2023/03/28 00:22:37;;;;;;;2.90;2.50;;;;;;;;;;6186847;23;20435;-77
2023/03/28 00:25:22;;;;;;;2.90;2.70;;;;;;;;;;6188056;23;20431;-77
2023/03/28 00:28:02;;;;;;;3.00;2.77;;;;;;;;;;6189739;23;20414;-78
2023/03/28 00:30:38;;;;;;;4.77;2.53;;;;;;;;;;6190073;23;20506;-76
2023/03/28 00:33:24;;;;;;;2.57;2.17;;;;;;;;;;6188934;23;20414;-76
2023/03/28 00:36:04;;;;;;;4.17;2.80;;;;;;;;;;6190088;23;20442;-76
2023/03/28 00:38:42;;;;;;;4.43;3.00;;;;;;;;;;6189439;23;20411;-77
2023/03/28 00:47:14;;;;;;;4.37;3.90;;;;;;;;;;6174722;23;20410;-78
2023/03/28 00:49:57;;;;;;;3.73;2.70;;;;;;;;;;6198502;23;20493;-77
2023/03/28 00:52:51;;;;;;;4.43;2.30;;;;;;;;;;6208075;23;20403;-77
2023/03/28 00:55:39;;;;;;;3.40;3.10;;;;;;;;;;6194356;23;20431;-78
2023/03/28 00:58:22;;;;;;;2.90;2.30;;;;;;;;;;6192118;23;20410;-77
2023/03/28 01:01:01;;;;;;;4.10;2.60;;;;;;;;;;6195393;23;20469;-77
2023/03/28 01:06:33;;;;;;;2.50;2.30;;;;;;;;;;6193446;23;20434;-77
2023/03/28 01:09:07;;;;;;;3.50;2.80;;;;;;;;;;6196299;23;20426;-77
2023/03/28 01:11:55;;;;;;;2.57;2.37;;;;;;;;;;6195612;23;20414;-77
2023/03/28 01:14:40;;;;;;;3.80;2.80;;;;;;;;;;6195297;23;20407;-78
2023/03/28 01:17:22;;;;;;;2.50;2.40;;;;;;;;;;6195189;23;20418;-75
2023/03/28 01:20:19;;;;;;;3.40;2.30;;;;;;;;;;6196679;23;20458;-76
2023/03/28 01:26:09;;;;;;;3.40;3.20;;;;;;;;;;6193526;23;20403;-76
2023/03/28 01:29:08;;;;;;;5.47;2.60;;;;;;;;;;6199142;23;20410;-77
2023/03/28 01:32:12;;;;;;;4.93;2.57;;;;;;;;;;6196708;23;20482;-76
2023/03/28 01:44:03;;;;;;;3.50;3.03;;;;;;;;;;6187231;23;20502;-76
2023/03/28 01:46:59;;;;;;;4.33;2.70;;;;;;;;;;6195892;23;20466;-76
2023/03/28 01:49:38;;;;;;;3.50;3.20;;;;;;;;;;6196535;23;20434;-77
2023/03/28 01:52:20;;;;;;;3.27;2.80;;;;;;;;;;6197719;23;20418;-77
2023/03/28 01:54:58;;;;;;;5.60;3.17;;;;;;;;;;6197317;23;20439;-77
2023/03/28 01:57:39;;;;;;;3.37;3.00;;;;;;;;;;6197359;23;20446;-76
2023/03/28 02:00:32;;;;;;;3.73;3.50;;;;;;;;;;6198210;23;20411;-76
2023/03/28 02:03:36;;;;;;;3.93;3.53;;;;;;;;;;6198648;23;20477;-77
2023/03/28 02:09:16;;;;;;;3.43;3.23;;;;;;;;;;6198147;23;20387;-77
2023/03/28 02:11:52;;;;;;;3.77;3.57;;;;;;;;;;6209215;23;20411;-77
2023/03/28 02:14:49;;;;;;;4.03;3.73;;;;;;;;;;6208778;23;20423;-77
2023/03/28 02:17:34;;;;;;;4.37;3.00;;;;;;;;;;6209096;23;20418;-77
2023/03/28 02:20:18;;;;;;;3.60;3.40;;;;;;;;;;6208779;23;20402;-77
2023/03/28 02:23:28;;;;;;;4.37;3.20;;;;;;;;;;6208838;23;20506;-76
2023/03/28 02:26:24;;;;;;;3.57;3.07;;;;;;;;;;6208660;23;20470;-77
2023/03/28 02:28:58;;;;;;;5.43;3.10;;;;;;;;;;6208321;23;20399;-77
2023/03/28 02:31:31;;;;;;;3.20;2.80;;;;;;;;;;6205914;23;20408;-77
2023/03/28 02:34:24;;;;;;;5.47;3.10;;;;;;;;;;6198710;23;20407;-77
2023/03/28 02:40:08;;;;;;;20.90;4.40;;;;;;;;;;6203320;23;20399;-76
2023/03/28 02:43:10;;;;;;;3.33;3.03;;;;;;;;;;6207839;23;20435;-76
2023/03/28 02:46:15;;;;;;;;;;;;;;;;;;;;;
2023/03/28 02:49:16;;;;;;;5.73;3.90;;;;;;;;;;6115071;23;20448;-78
2023/03/28 02:52:11;;;;;;;4.77;3.73;;;;;;;;;;6099079;23;20409;-77
2023/03/28 02:55:02;;;;;;;3.30;3.00;;;;;;;;;;6095291;23;20434;-76
2023/03/28 03:00:47;;;;;;;3.23;3.00;;;;;;;;;;6168828;23;20482;-78
2023/03/28 03:03:45;;;;;;;4.60;3.57;;;;;;;;;;6183702;23;20434;-77
2023/03/28 03:09:13;;;;;;;4.07;3.27;;;;;;;;;;6183301;23;20474;-78
2023/03/28 03:12:20;;;;;;;6.53;3.70;;;;;;;;;;6185885;23;20422;-77
2023/03/28 03:15:06;;;;;;;9.63;3.97;;;;;;;;;;6174410;23;20809;-77
2023/03/28 03:17:39;;;;;;;4.67;3.37;;;;;;;;;;6185770;23;20414;-77
2023/03/28 03:23:16;;;;;;;3.60;3.30;;;;;;;;;;6181622;23;20467;-76
2023/03/28 03:25:51;;;;;;;8.47;3.40;;;;;;;;;;6186764;23;20545;-77
2023/03/28 03:28:30;;;;;;;3.70;3.40;;;;;;;;;;6188224;23;20414;-78
2023/03/28 03:31:02;;;;;;;4.90;3.47;;;;;;;;;;6187311;23;20438;-78
2023/03/28 03:33:40;;;;;;;9.13;3.50;;;;;;;;;;6186527;23;20499;-77
2023/03/28 03:36:29;;;;;;;5.53;3.97;;;;;;;;;;6185075;23;20489;-76
2023/03/28 03:41:55;;;;;;;5.93;3.40;;;;;;;;;;6181776;23;20406;-77
2023/03/28 03:44:35;;;;;;;4.10;3.30;;;;;;;;;;6185341;23;20473;-77
2023/03/28 03:47:23;;;;;;;;;;;;;;;;;;;;;
2023/03/28 03:53:00;;;;;;;3.00;2.73;;;;;;;;;;6174181;23;20402;-78
2023/03/28 04:04:35;;;;;;;4.17;2.90;;;;;;;;;;6092819;23;20453;-77
2023/03/28 04:07:09;;;;;;;6.53;3.27;;;;;;;;;;6062814;23;20428;-77
2023/03/28 04:09:44;;;;;;;5.40;3.33;;;;;;;;;;6062893;23;20415;-76
2023/03/28 04:12:17;;;;;;;3.27;2.97;;;;;;;;;;6062594;23;20418;-78
2023/03/28 04:14:49;;;;;;;4.57;2.50;;;;;;;;;;6155318;23;20427;-77
2023/03/28 04:17:22;;;;;;;3.53;2.93;;;;;;;;;;6185029;23;20411;-76
2023/03/28 04:19:55;;;;;;;5.10;3.30;;;;;;;;;;6185715;23;20411;-76
2023/03/28 04:22:32;;;;;;;3.10;2.90;;;;;;;;;;6185816;23;20407;-78
2023/03/28 04:25:06;;;;;;;7.80;2.83;;;;;;;;;;6186009;23;20986;-78
2023/03/28 04:27:48;;;;;;;3.47;3.17;;;;;;;;;;6185964;23;20453;-78
2023/03/28 04:30:19;;;;;;;5.73;3.30;;;;;;;;;;6186740;23;20473;-77
2023/03/28 04:32:53;;;;;;;4.60;3.23;;;;;;;;;;6186024;23;20438;-77
2023/03/28 04:35:34;;;;;;;3.27;2.97;;;;;;;;;;6185030;23;20511;-77
2023/03/28 04:38:09;;;;;;;3.40;3.07;;;;;;;;;;6186038;23;20419;-77
2023/03/28 04:40:43;;;;;;;3.43;3.13;;;;;;;;;;6188759;23;20414;-78
2023/03/28 04:43:25;;;;;;;3.90;3.27;;;;;;;;;;6190902;23;20778;-78
2023/03/28 04:46:03;;;;;;;4.73;2.90;;;;;;;;;;6191357;23;20446;-78
2023/03/28 04:48:46;;;;;;;3.33;3.10;;;;;;;;;;6192731;23;20406;-79
2023/03/28 04:51:27;;;;;;;6.10;3.53;;;;;;;;;;6189531;23;20425;-78
2023/03/28 04:54:04;;;;;;;6.00;3.07;;;;;;;;;;6189199;23;20438;-77
2023/03/28 04:56:35;;;;;;;3.17;2.93;;;;;;;;;;6188815;23;20438;-78
2023/03/28 04:59:13;;;;;;;6.13;3.40;;;;;;;;;;6191059;23;20430;-77
2023/03/28 05:01:48;;;;;;;5.30;3.30;;;;;;;;;;6191683;23;20399;-77
2023/03/28 05:04:34;;;;;;;3.73;3.50;;;;;;;;;;6190848;23;20439;-77
2023/03/28 05:07:12;;;;;;;7.43;3.17;;;;;;;;;;6194137;23;20425;-77
2023/03/28 05:09:51;;;;;;;8.03;3.60;;;;;;;;;;6188254;23;20473;-79
2023/03/28 05:12:25;;;;;;;5.20;3.13;;;;;;;;;;6192512;23;20406;-76
2023/03/28 05:15:02;;;;;;;4.30;3.13;;;;;;;;;;6192926;23;20431;-76
2023/03/28 05:17:39;;;;;;;6.33;3.23;;;;;;;;;;6194244;23;20415;-79
2023/03/28 05:20:22;;;;;;;3.03;2.77;;;;;;;;;;6193107;23;20437;-78
2023/03/28 05:23:06;;;;;;;3.90;3.23;;;;;;;;;;6190420;23;20435;-78
2023/03/28 05:28:28;;;;;;;3.47;3.00;;;;;;;;;;6188738;23;20391;-77
2023/03/28 05:31:30;;;;;;;10.47;3.60;;;;;;;;;;6194480;23;20414;-78
2023/03/28 05:34:09;;;;;;;7.20;4.27;;;;;;;;;;6186801;23;20457;-79
2023/03/28 05:36:47;;;;;;;4.63;3.43;;;;;;;;;;6197443;23;20410;-78
2023/03/28 05:39:34;;;;;;;3.93;3.13;;;;;;;;;;6197212;23;20411;-78
2023/03/28 05:45:02;;;;;;;9.97;4.00;;;;;;;;;;6190106;23;20476;-77
2023/03/28 05:50:32;;;;;;;4.50;3.40;;;;;;;;;;6195391;23;20436;-77
2023/03/28 05:53:19;;;;;;;4.43;3.70;;;;;;;;;;6191632;23;20481;-77
2023/03/28 05:55:58;;;;;;;3.90;3.47;;;;;;;;;;6193959;23;20461;-78
2023/03/28 05:58:30;;;;;;;6.27;3.83;;;;;;;;;;6193487;23;20415;-79
2023/03/28 06:01:05;;;;;;;4.77;3.30;;;;;;;;;;6190242;23;20449;-77
2023/03/28 06:03:41;;;;;;;4.73;3.70;;;;;;;;;;6191016;23;20469;-77
2023/03/28 06:06:12;;;;;;;4.80;3.20;;;;;;;;;;6202749;23;20498;-79
2023/03/28 06:08:40;;;;;;;6.43;3.63;;;;;;;;;;6203272;23;20411;-77
2023/03/28 06:11:19;;;;;;;7.53;3.47;;;;;;;;;;6204201;23;20413;-78
2023/03/28 06:24:40;;;;;;;4.30;2.80;;;;;;;;;;6230196;23;21002;-78
2023/03/28 06:27:19;;;;;;;3.83;3.43;;;;;;;;;;6225414;23;20397;-78
2023/03/28 06:30:11;;;;;;;7.83;2.90;;;;;;;;;;6222732;23;20406;-78
2023/03/28 06:32:50;;;;;;;5.00;3.47;;;;;;;;;;6222819;23;20465;-78
2023/03/28 06:35:37;;;;;;;4.10;3.80;;;;;;;;;;6222701;23;20429;-77
2023/03/28 06:38:21;;;;;;;10.73;3.73;;;;;;;;;;6223430;23;20478;-78
2023/03/28 06:40:58;;;;;;;7.70;4.03;;;;;;;;;;6222469;23;20399;-78
2023/03/28 06:43:39;;;;;;;5.10;4.60;;;;;;;;;;6224234;23;20437;-77
2023/03/28 06:46:35;;;;;;;5.70;5.20;;;;;;;;;;6225774;23;20430;-77
2023/03/28 06:49:28;;;;;;;5.63;3.33;;;;;;;;;;6227340;23;20397;-77
2023/03/28 06:52:17;;;;;;;3.43;3.13;;;;;;;;;;6229524;23;20420;-77
2023/03/28 06:55:00;;;;;;;6.80;3.37;;;;;;;;;;6229937;23;20433;-76
2023/03/28 06:57:42;;;;;;;6.67;3.60;;;;;;;;;;6230807;23;20954;-78
2023/03/28 07:00:14;;;;;;;7.33;3.27;;;;;;;;;;6230785;23;20418;-78
2023/03/28 07:05:52;;;;;;;6.40;3.40;;;;;;;;;;6189787;23;20418;-78
2023/03/28 07:08:27;;;;;;;5.13;4.07;;;;;;;;;;6229584;23;20373;-78
2023/03/28 07:11:09;;;;;;;3.77;3.47;;;;;;;;;;6224113;23;20406;-77
2023/03/28 07:13:45;;;;;;;4.87;3.10;;;;;;;;;;6230239;23;20390;-78
2023/03/28 07:16:17;;;;;;;4.63;3.63;;;;;;;;;;6229084;23;20449;-78
2023/03/28 07:21:34;;;;;;;6.37;4.20;;;;;;;;;;6222063;23;20390;-79
2023/03/28 07:24:02;;;;;;;4.67;3.87;;;;;;;;;;6226710;23;20438;-78
2023/03/28 07:26:30;;;;;;;5.30;3.53;;;;;;;;;;6227285;23;20524;-78
2023/03/28 07:29:01;;;;;;;4.83;3.60;;;;;;;;;;6226858;23;20407;-77
2023/03/28 07:31:30;;;;;;;4.03;3.63;;;;;;;;;;6225491;23;20418;-77
2023/03/28 07:33:59;;;;;;;9.17;4.17;;;;;;;;;;6228504;23;20397;-77
2023/03/28 07:36:29;;;;;;;9.67;4.27;;;;;;;;;;6227515;23;20425;-78
2023/03/28 07:38:59;;;;;;;7.37;4.43;;;;;;;;;;6228806;23;20476;-77
2023/03/28 07:41:27;;;;;;;4.00;3.57;;;;;;;;;;6227591;23;20497;-77
2023/03/28 07:43:57;;;;;;;5.43;3.60;;;;;;;;;;6228277;23;20441;-78
2023/03/28 07:46:27;;;;;;;5.73;3.67;;;;;;;;;;6227528;23;20449;-78
2023/03/28 07:48:55;;;;;;;8.07;4.57;;;;;;;;;;6227521;23;20403;-77
2023/03/28 07:51:32;;;;;;;4.27;3.80;;;;;;;;;;6235086;23;20471;-78
2023/03/28 07:54:04;;;;;;;7.17;3.70;;;;;;;;;;6233820;23;20832;-78
2023/03/28 07:56:36;;;;;;;5.40;4.17;;;;;;;;;;6237204;22;20435;-78
2023/03/28 07:59:04;;;;;;;6.27;3.60;;;;;;;;;;6238777;23;20398;-78
2023/03/28 08:01:33;;;;;;;6.10;4.07;;;;;;;;;;6236174;23;20461;-77
2023/03/28 08:04:06;;;;;;;5.47;3.57;;;;;;;;;;6235684;22;20445;-78
2023/03/28 08:06:37;;;;;;;4.43;3.90;;;;;;;;;;6233508;23;20750;-78
2023/03/28 08:09:19;;;;;;;3.77;3.47;;;;;;;;;;6229944;23;20441;-78
2023/03/28 08:11:52;;;;;;;4.73;3.50;;;;;;;;;;6239212;23;20406;-78
2023/03/28 08:14:21;;;;;;;5.93;4.10;;;;;;;;;;6239910;23;20382;-77
2023/03/28 08:16:56;;;;;;;4.00;3.03;;;;;;;;;;6241224;22;20433;-79
2023/03/28 08:19:23;;;;;;;4.17;3.80;;;;;;;;;;6241058;22;20402;-80
2023/03/28 08:22:01;;;;;;;5.03;3.20;;;;;;;;;;6240668;22;20383;-79
2023/03/28 08:27:35;;;;;;;4.40;3.10;;;;;;;;;;6233083;23;20413;-77
2023/03/28 08:33:17;;;;;;;4.40;2.70;;;;;;;;;;6202893;23;20417;-78
2023/03/28 08:35:54;;;;;;;2.97;2.77;;;;;;;;;;6216413;23;20430;-78
2023/03/28 08:38:30;;;;;;;3.17;2.60;;;;;;;;;;6215727;23;20406;-77
2023/03/28 08:41:28;;;;;;;4.67;3.03;;;;;;;;;;6217792;23;20716;-77
2023/03/28 08:44:17;;;;;;;4.90;2.77;;;;;;;;;;6213942;23;20445;-77
2023/03/28 08:46:47;;;;;;;3.17;2.97;;;;;;;;;;6216360;23;20410;-77
2023/03/28 08:49:16;;;;;;;3.97;3.00;;;;;;;;;;6215850;23;20414;-77
2023/03/28 08:51:49;;;;;;;4.43;3.10;;;;;;;;;;6216118;23;20414;-76
2023/03/28 08:54:24;;;;;;;4.73;3.20;;;;;;;;;;6215640;23;20406;-78
2023/03/28 08:56:57;;;;;;;5.13;3.20;;;;;;;;;;6215913;23;20417;-78
2023/03/28 08:59:30;;;;;;;4.67;2.73;;;;;;;;;;6214954;23;20418;-78
2023/03/28 09:01:58;;;;;;;4.43;2.70;;;;;;;;;;6214694;23;20449;-78
2023/03/28 09:04:28;;;;;;;5.90;2.40;;;;;;;;;;6215706;23;20970;-78
2023/03/28 09:07:00;;;;;;;7.43;2.37;;;;;;;;;;6217648;23;20947;-78
2023/03/28 09:09:44;;;;;;;7.87;2.47;;;;;;;;;;6219812;23;20922;-77
2023/03/28 09:12:21;;;;;;;2.70;2.50;;;;;;;;;;6219376;23;20410;-77
2023/03/28 09:14:56;;;;;;;2.30;2.17;;;;;;;;;;6221839;23;20501;-78
2023/03/28 09:17:30;;;;;;;4.00;2.17;;;;;;;;;;6221288;23;20398;-79
2023/03/28 09:20:10;;;;;;;3.77;2.10;;;;;;;;;;6222633;23;20427;-80
2023/03/28 09:22:40;;;;;;;5.33;2.63;;;;;;;;;;6220379;23;20810;-77
2023/03/28 09:25:16;;;;;;;1.93;1.60;;;;;;;;;;6218415;23;20438;-79
2023/03/28 09:27:57;;;;;;;2.30;1.87;;;;;;;;;;6218996;23;20409;-78
2023/03/28 09:30:36;;;;;;;4.03;2.20;;;;;;;;;;6220007;23;20567;-77
2023/03/28 09:33:13;;;;;;;2.83;2.00;;;;;;;;;;6220630;23;20421;-78
2023/03/28 09:35:42;;;;;;;2.70;2.50;;;;;;;;;;6218770;23;20517;-77
2023/03/28 09:38:18;;;;;;;4.93;2.13;;;;;;;;;;6217905;23;20492;-79
2023/03/28 09:56:37;;;;;;;2.27;1.90;;;;;;;;;;5993658;23;20484;-78
2023/03/28 09:59:39;;;;;;;5.00;2.60;;;;;;;;;;6120760;23;20475;-78
2023/03/28 10:02:31;;;;;;;2.03;1.93;;;;;;;;;;6123235;23;20420;-78
2023/03/28 10:05:19;;;;;;;;;;;;;;;;;;;;;
2023/03/28 10:07:55;;;;;;;2.80;2.60;;;;;;;;;;6215284;23;20411;-77
2023/03/28 10:10:36;;;;;;;2.73;2.37;;;;;;;;;;6215477;23;20417;-77
2023/03/28 10:13:42;;;;;;;;;;;;;;;;;;;;;
2023/03/28 10:16:29;;;;;;;3.30;2.23;;;;;;;;;;6215861;23;20421;-77
2023/03/28 10:19:13;;;;;;;2.40;2.20;;;;;;;;;;6215191;23;20441;-77
2023/03/28 10:21:51;;;;;;;2.07;1.97;;;;;;;;;;6215398;23;20398;-77
2023/03/28 10:24:34;;;;;;;3.57;2.10;;;;;;;;;;6214466;23;20438;-77
2023/03/28 10:27:15;;;;;;;3.23;2.37;;;;;;;;;;6226913;23;20410;-77
2023/03/28 10:30:00;;;;;;;2.63;2.17;;;;;;;;;;6230059;23;20421;-76
2023/03/28 10:32:47;;;;;;;5.70;1.90;;;;;;;;;;6227818;23;20566;-77
2023/03/28 10:35:46;;;;;;;2.83;2.53;;;;;;;;;;6227184;23;20488;-77
2023/03/28 10:41:24;;;;;;;2.73;2.53;;;;;;;;;;6221508;23;20406;-76
2023/03/28 10:44:02;;;;;;;2.80;2.50;;;;;;;;;;6218692;23;20433;-77
2023/03/28 10:46:53;;;;;;;2.43;2.27;;;;;;;;;;6215681;23;20517;-78
2023/03/28 10:49:46;;;;;;;1.70;1.60;;;;;;;;;;6215469;23;20410;-77
2023/03/28 10:52:25;;;;;;;4.50;2.40;;;;;;;;;;6215424;23;20740;-77
2023/03/28 10:57:59;;;;;;;2.63;1.93;;;;;;;;;;6199739;23;20485;-77
2023/03/28 11:00:55;;;;;;;2.00;1.90;;;;;;;;;;6216121;23;20390;-77
2023/03/28 11:03:32;;;;;;;3.50;1.90;;;;;;;;;;6215841;23;20443;-77
2023/03/28 11:06:17;;;;;;;2.90;1.70;;;;;;;;;;6216876;23;20441;-78
2023/03/28 11:08:49;;;;;;;2.50;2.30;;;;;;;;;;6216916;23;20757;-78
2023/03/28 11:11:34;;;;;;;3.70;2.90;;;;;;;;;;6216591;23;20738;-77
2023/03/28 11:14:10;;;;;;;2.67;2.47;;;;;;;;;;6216407;23;20414;-77
2023/03/28 11:16:47;;;;;;;3.00;2.60;;;;;;;;;;6216569;23;20406;-77
2023/03/28 11:19:43;;;;;;;2.93;2.13;;;;;;;;;;6217006;23;20414;-78
2023/03/28 11:22:22;;;;;;;2.60;2.40;;;;;;;;;;6216516;23;20797;-78
2023/03/28 11:25:02;;;;;;;3.97;2.10;;;;;;;;;;6215868;23;20442;-77
2023/03/28 11:27:37;;;;;;;2.80;2.30;;;;;;;;;;6216131;23;20413;-77
2023/03/28 11:30:18;;;;;;;4.10;2.87;;;;;;;;;;6217584;23;20488;-77
2023/03/28 11:33:02;;;;;;;2.50;2.30;;;;;;;;;;6217822;23;20410;-78
2023/03/28 11:35:39;;;;;;;2.63;2.43;;;;;;;;;;6217718;23;20415;-78
2023/03/28 11:38:21;;;;;;;3.50;2.43;;;;;;;;;;6216768;23;20492;-78
2023/03/28 11:41:00;;;;;;;3.57;2.40;;;;;;;;;;6216480;23;20437;-78
2023/03/28 11:43:36;;;;;;;2.67;2.40;;;;;;;;;;6216467;23;20422;-77
2023/03/28 11:46:07;;;;;;;2.80;2.03;;;;;;;;;;6216388;23;20442;-77
2023/03/28 11:48:40;;;;;;;4.13;2.40;;;;;;;;;;6216038;23;20421;-78
2023/03/28 11:51:13;;;;;;;3.83;2.30;;;;;;;;;;6217497;23;20445;-76
2023/03/28 11:53:43;;;;;;;2.87;2.10;;;;;;;;;;6215948;23;20417;-79
2023/03/28 11:56:20;;;;;;;3.30;2.53;;;;;;;;;;6216325;23;20426;-77
2023/03/28 11:58:49;;;;;;;2.87;2.03;;;;;;;;;;6216013;23;20413;-77
2023/03/28 12:01:20;;;;;;;2.53;2.33;;;;;;;;;;6215859;23;20395;-78
2023/03/28 12:03:57;;;;;;;2.60;2.40;;;;;;;;;;6216621;23;20418;-77
2023/03/28 12:06:30;;;;;;;5.03;2.47;;;;;;;;;;6217805;23;20445;-78
2023/03/28 12:09:03;;;;;;;2.70;2.50;;;;;;;;;;6218498;23;20410;-77
2023/03/28 12:11:38;;;;;;;2.90;2.60;;;;;;;;;;6218205;23;20402;-78
2023/03/28 12:14:06;;;;;;;4.70;2.67;;;;;;;;;;6217291;23;20410;-78
2023/03/28 12:16:36;;;;;;;4.10;2.50;;;;;;;;;;6217879;23;20506;-78
2023/03/28 12:19:05;;;;;;;4.30;2.33;;;;;;;;;;6215293;23;20402;-77
2023/03/28 12:21:34;;;;;;;4.00;2.80;;;;;;;;;;6213691;23;20434;-77
2023/03/28 12:24:10;;;;;;;4.97;2.63;;;;;;;;;;6215030;23;20506;-77
2023/03/28 12:26:55;;;;;;;2.57;2.37;;;;;;;;;;6220814;23;20437;-78
2023/03/28 12:29:26;;;;;;;3.80;2.40;;;;;;;;;;6220169;23;20498;-78
2023/03/28 12:32:00;;;;;;;2.70;2.50;;;;;;;;;;6217499;23;20821;-77
2023/03/28 12:34:35;;;;;;;3.83;2.30;;;;;;;;;;6188283;23;20512;-78
2023/03/28 12:37:10;;;;;;;2.70;2.43;;;;;;;;;;6217786;23;21085;-78
2023/03/28 12:39:52;;;;;;;3.70;2.03;;;;;;;;;;6216098;23;20758;-78
2023/03/28 12:42:33;;;;;;;2.57;2.30;;;;;;;;;;6215413;23;20441;-77
2023/03/28 12:45:08;;;;;;;3.20;2.30;;;;;;;;;;6215821;23;20472;-78
2023/03/28 12:47:43;;;;;;;16.33;4.93;;;;;;;;;;6215484;23;20385;-78
2023/03/28 12:50:19;;;;;;;9.37;3.60;;;;;;;;;;6216009;23;20419;-79
2023/03/28 12:53:01;;;;;;;2.93;2.27;;;;;;;;;;6215506;23;20410;-77
2023/03/28 12:55:54;;;;;;;2.97;2.57;;;;;;;;;;6214700;23;20986;-78
2023/03/28 12:58:32;;;;;;;2.97;2.73;;;;;;;;;;6215901;23;20844;-78
2023/03/28 13:04:10;;;;;;;4.00;2.07;;;;;;;;;;6214486;23;20394;-77
2023/03/28 13:06:48;;;;;;;3.60;2.53;;;;;;;;;;6215565;23;20433;-78
2023/03/28 13:09:31;;;;;;;5.63;2.80;;;;;;;;;;6215208;23;20464;-77
2023/03/28 13:12:05;;;;;;;2.50;2.30;;;;;;;;;;6215628;23;20418;-77
2023/03/28 13:15:01;;;;;;;2.63;2.37;;;;;;;;;;6215115;23;20456;-78
2023/03/28 13:17:41;;;;;;;2.70;2.10;;;;;;;;;;6216985;23;20406;-78
2023/03/28 13:20:26;;;;;;;6.80;2.70;;;;;;;;;;6190437;23;20402;-78
2023/03/28 13:23:09;;;;;;;5.50;2.20;;;;;;;;;;6218550;23;20493;-77
2023/03/28 13:25:37;;;;;;;2.40;2.20;;;;;;;;;;6217783;23;20657;-79
2023/03/28 13:28:21;;;;;;;3.60;2.60;;;;;;;;;;6216277;23;20961;-77
2023/03/28 13:31:05;;;;;;;2.87;2.40;;;;;;;;;;6216289;23;20544;-78
2023/03/28 13:33:39;;;;;;;3.70;2.43;;;;;;;;;;6214466;23;20747;-78
2023/03/28 13:36:38;;;;;;;4.10;2.60;;;;;;;;;;6215250;23;20442;-78
2023/03/28 13:39:26;;;;;;;3.50;2.70;;;;;;;;;;6214889;23;20446;-78
2023/03/28 13:41:57;;;;;;;3.40;2.57;;;;;;;;;;6214343;23;20429;-78
2023/03/28 13:44:41;;;;;;;3.50;2.63;;;;;;;;;;6214093;23;20413;-78
2023/03/28 13:47:12;;;;;;;4.00;2.57;;;;;;;;;;6212381;23;20606;-78
2023/03/28 13:49:46;;;;;;;4.43;1.93;;;;;;;;;;6214223;23;20420;-78
2023/03/28 13:52:19;;;;;;;3.23;2.20;;;;;;;;;;6215116;23;20482;-78
2023/03/28 13:54:52;;;;;;;2.40;2.20;;;;;;;;;;6214841;23;20496;-77
2023/03/28 13:57:24;;;;;;;3.27;2.40;;;;;;;;;;6214938;23;20418;-78
2023/03/28 13:59:54;;;;;;;2.87;2.57;;;;;;;;;;6214458;23;20414;-77
2023/03/28 14:02:22;;;;;;;2.30;2.00;;;;;;;;;;6214406;23;20403;-77
2023/03/28 14:04:55;;;;;;;3.50;2.47;;;;;;;;;;6214994;23;20940;-77
2023/03/28 14:07:27;;;;;;;5.80;2.40;;;;;;;;;;6215963;23;20437;-78
2023/03/28 14:09:57;;;;;;;3.53;2.47;;;;;;;;;;6219927;23;20383;-77
2023/03/28 14:12:26;;;;;;;4.50;3.27;;;;;;;;;;6220002;23;20422;-78
2023/03/28 14:14:54;;;;;;;2.60;2.30;;;;;;;;;;6218924;23;20429;-78
2023/03/28 14:17:24;;;;;;;2.30;2.13;;;;;;;;;;6219331;23;20410;-77
2023/03/28 14:19:53;;;;;;;2.57;2.37;;;;;;;;;;6219074;23;20410;-77
2023/03/28 14:22:22;;;;;;;2.30;2.13;;;;;;;;;;6218625;23;20434;-78
2023/03/28 14:24:50;;;;;;;2.60;2.40;;;;;;;;;;6218546;23;20429;-77
2023/03/28 14:27:29;;;;;;;4.37;2.27;;;;;;;;;;6217677;23;20437;-78
2023/03/28 14:30:01;;;;;;;2.27;2.10;;;;;;;;;;6217810;23;20397;-77
2023/03/28 14:32:30;;;;;;;2.43;2.30;;;;;;;;;;6218482;23;20414;-77
2023/03/28 14:35:10;;;;;;;2.37;2.17;;;;;;;;;;6218100;23;20427;-79
2023/03/28 14:37:47;;;;;;;2.60;2.40;;;;;;;;;;6218148;23;20410;-76
2023/03/28 14:40:28;;;;;;;3.97;1.90;;;;;;;;;;6219411;23;20397;-77
2023/03/28 14:42:56;;;;;;;2.97;2.27;;;;;;;;;;6220031;23;20374;-78
2023/03/28 14:45:25;;;;;;;2.20;2.00;;;;;;;;;;6220280;23;20407;-77
2023/03/28 14:47:56;;;;;;;2.30;2.10;;;;;;;;;;6220781;23;20425;-77
2023/03/28 14:50:27;;;;;;;4.13;2.30;;;;;;;;;;6221491;23;20415;-78
2023/03/28 14:53:00;;;;;;;2.90;2.50;;;;;;;;;;6221508;23;20371;-77
2023/03/28 14:55:33;;;;;;;5.33;2.10;;;;;;;;;;6220478;23;20432;-75
2023/03/28 14:58:05;;;;;;;3.20;1.97;;;;;;;;;;6220027;23;20464;-76
2023/03/28 15:00:36;;;;;;;2.30;2.03;;;;;;;;;;6219235;23;20441;-77
2023/03/28 15:03:05;;;;;;;2.00;1.90;;;;;;;;;;6224454;23;20402;-76
2023/03/28 15:05:33;;;;;;;1.90;1.80;;;;;;;;;;6225741;23;20426;-77
2023/03/28 15:08:05;;;;;;;2.80;1.93;;;;;;;;;;6225114;23;20418;-79
2023/03/28 15:10:34;;;;;;;2.10;1.93;;;;;;;;;;6224642;23;20678;-77
2023/03/28 15:13:06;;;;;;;3.67;2.50;;;;;;;;;;6223361;23;20438;-78
2023/03/28 15:18:24;;;;;;;3.30;2.30;;;;;;;;;;6226694;23;20406;-77
2023/03/28 15:21:12;;;;;;;3.90;2.10;;;;;;;;;;6227448;23;20470;-78
2023/03/28 15:24:01;;;;;;;3.20;2.17;;;;;;;;;;6228368;23;20483;-78
2023/03/28 15:26:44;;;;;;;2.20;2.00;;;;;;;;;;6228263;23;20445;-77
2023/03/28 15:32:16;;;;;;;2.20;1.80;;;;;;;;;;6218583;23;20406;-75
2023/03/28 15:34:56;;;;;;;3.90;2.17;;;;;;;;;;6232682;23;20425;-78
2023/03/28 15:37:28;;;;;;;2.90;2.60;;;;;;;;;;6231253;23;20389;-78
2023/03/28 15:43:13;;;;;;;4.40;3.70;;;;;;;;;;6230487;23;20421;-78
2023/03/28 15:45:45;;;;;;;2.70;2.27;;;;;;;;;;6227201;23;20501;-78
2023/03/28 15:48:18;;;;;;;1.80;1.70;;;;;;;;;;6225602;23;20416;-76
2023/03/28 15:53:59;;;;;;;;;;;;;;;;;;;;;
2023/03/28 15:56:40;;;;;;;4.90;2.37;;;;;;;;;;6225634;23;20402;-78
2023/03/28 15:59:16;;;;;;;3.13;1.93;;;;;;;;;;6224234;23;20472;-77
2023/03/28 16:02:22;;;;;;;2.67;2.40;;;;;;;;;;6222340;23;20469;-78
2023/03/28 16:05:11;;;;;;;3.90;2.80;;;;;;;;;;6223201;23;20441;-78
2023/03/28 16:08:05;;;;;;;2.97;2.30;;;;;;;;;;6218062;23;20442;-79
2023/03/28 16:10:49;;;;;;;1.90;1.80;;;;;;;;;;6220697;23;20428;-78
2023/03/28 16:13:22;;;;;;;3.97;2.27;;;;;;;;;;6222077;23;20474;-78
2023/03/28 16:15:57;;;;;;;2.33;1.80;;;;;;;;;;6221912;23;20426;-78
2023/03/28 16:18:31;;;;;;;2.30;1.97;;;;;;;;;;6220627;23;20378;-78
2023/03/28 16:21:03;;;;;;;2.63;2.20;;;;;;;;;;6221722;23;20440;-78
2023/03/28 16:23:59;;;;;;;;;;;;;;;;;;;;;
2023/03/28 16:32:47;;;;;;;4.03;2.13;;;;;;;;;;6100502;23;20610;-78
2023/03/28 16:39:21;;;;;;;;;;;;;;;;;;;;;
2023/03/28 16:51:56;;;;;;;;;;;;;;;;;;;;;
2023/03/28 16:54:52;;;;;;;4.50;2.60;;;;;;;;;;6039316;23;20415;-78
2023/03/28 17:03:30;;;;;;;4.77;2.57;;;;;;;;;;6021245;23;20499;-76
2023/03/28 17:09:05;;;;;;;7.00;6.30;;;;;;;;;;6091887;23;20990;-78
2023/03/28 17:11:59;;;;;;;2.80;2.40;;;;;;;;;;6097574;23;20417;-78
2023/03/28 17:14:41;;;;;;;6.40;4.40;;;;;;;;;;6171145;23;20433;-80
2023/03/28 17:17:12;;;;;;;3.47;2.87;;;;;;;;;;6214017;23;20383;-78
2023/03/28 17:19:44;;;;;;;3.27;2.40;;;;;;;;;;6213161;23;20445;-76
2023/03/28 17:22:24;;;;;;;4.87;2.70;;;;;;;;;;6213983;23;20430;-79
2023/03/28 17:25:05;;;;;;;5.17;3.13;;;;;;;;;;6214017;23;20449;-78
2023/03/28 17:27:42;;;;;;;3.07;2.87;;;;;;;;;;6216178;23;20468;-78
2023/03/28 17:30:18;;;;;;;3.37;2.70;;;;;;;;;;6217385;23;20876;-79
2023/03/28 17:32:47;;;;;;;2.53;2.33;;;;;;;;;;6222548;23;20464;-78
2023/03/28 17:35:21;;;;;;;3.10;2.80;;;;;;;;;;6221088;23;20434;-78
2023/03/28 17:37:51;;;;;;;3.10;2.40;;;;;;;;;;6222581;23;20897;-78
2023/03/28 17:40:19;;;;;;;4.23;3.27;;;;;;;;;;6223824;23;20437;-79
2023/03/28 17:42:48;;;;;;;7.07;3.47;;;;;;;;;;6224911;23;20421;-79
2023/03/28 17:45:24;;;;;;;4.13;3.13;;;;;;;;;;6223791;23;20809;-78
2023/03/28 17:47:59;;;;;;;3.10;2.80;;;;;;;;;;6229102;23;20437;-78
2023/03/28 17:50:32;;;;;;;4.90;3.10;;;;;;;;;;6226259;23;20410;-77
2023/03/28 17:53:03;;;;;;;3.03;2.80;;;;;;;;;;6224952;23;20415;-77
2023/03/28 17:55:38;;;;;;;4.27;3.20;;;;;;;;;;6229010;23;20430;-79
2023/03/28 17:58:20;;;;;;;4.90;3.80;;;;;;;;;;6227656;23;20429;-78
2023/03/28 18:00:55;;;;;;;4.50;4.10;;;;;;;;;;6227336;23;20407;-78
2023/03/28 18:03:25;;;;;;;4.30;3.90;;;;;;;;;;6225814;23;20490;-78
2023/03/28 18:06:06;;;;;;;4.27;3.20;;;;;;;;;;6224891;23;20858;-79
2023/03/28 18:08:48;;;;;;;7.83;3.40;;;;;;;;;;6229603;23;20449;-77
2023/03/28 18:11:29;;;;;;;3.33;3.03;;;;;;;;;;6230405;23;20410;-77
2023/03/28 18:14:10;;;;;;;4.03;3.00;;;;;;;;;;6226867;23;20418;-77
2023/03/28 18:16:58;;;;;;;3.90;3.50;;;;;;;;;;6226214;23;20943;-78
2023/03/28 18:19:35;;;;;;;4.60;3.93;;;;;;;;;;6225299;23;20410;-80
2023/03/28 18:22:09;;;;;;;10.33;3.80;;;;;;;;;;6221805;23;20420;-78
2023/03/28 18:24:43;;;;;;;4.57;3.40;;;;;;;;;;6219372;23;20861;-80
2023/03/28 18:27:21;;;;;;;5.27;3.47;;;;;;;;;;6219962;23;20437;-77
2023/03/28 18:30:08;;;;;;;4.03;3.27;;;;;;;;;;6221133;23;20406;-78